sensor_id;sensor_type;location;lat;lon;timestamp;P1;durP1;ratioP1;P2;durP2;ratioP2
9174;SDS011;54374;50.196;8.050;2022-08-01T00:01:40;2.50;;;2.30;;
9174;SDS011;54374;50.196;8.050;2022-08-01T00:04:07;10.63;;;3.47;;
9174;SDS011;54374;50.196;8.050;2022-08-01T00:06:34;4.70;;;2.43;;
9174;SDS011;54374;50.196;8.050;2022-08-01T00:09:01;4.20;;;2.50;;
9174;SDS011;54374;50.196;8.050;2022-08-01T00:11:31;2.73;;;2.50;;
9174;SDS011;54374;50.196;8.050;2022-08-01T00:13:58;2.73;;;2.33;;
9174;SDS011;54374;50.196;8.050;2022-08-01T00:16:27;3.37;;;2.40;;
9174;SDS011;54374;50.196;8.050;2022-08-01T00:18:54;7.03;;;2.53;;
9174;SDS011;54374;50.196;8.050;2022-08-01T00:21:21;3.30;;;2.40;;
9174;SDS011;54374;50.196;8.050;2022-08-01T00:23:48;2.83;;;2.63;;
9174;SDS011;54374;50.196;8.050;2022-08-01T00:26:16;2.57;;;1.93;;
9174;SDS011;54374;50.196;8.050;2022-08-01T00:28:44;3.40;;;2.40;;
9174;SDS011;54374;50.196;8.050;2022-08-01T00:31:14;11.03;;;2.40;;
9174;SDS011;54374;50.196;8.050;2022-08-01T00:33:41;3.73;;;2.30;;
9174;SDS011;54374;50.196;8.050;2022-08-01T00:36:08;2.63;;;2.43;;
9174;SDS011;54374;50.196;8.050;2022-08-01T00:38:35;3.00;;;2.10;;
9174;SDS011;54374;50.196;8.050;2022-08-01T00:41:04;3.43;;;2.07;;
9174;SDS011;54374;50.196;8.050;2022-08-01T00:43:31;2.90;;;2.30;;
9174;SDS011;54374;50.196;8.050;2022-08-01T00:46:00;3.80;;;2.33;;
9174;SDS011;54374;50.196;8.050;2022-08-01T00:48:27;2.23;;;2.03;;
9174;SDS011;54374;50.196;8.050;2022-08-01T00:50:54;3.83;;;2.77;;
9174;SDS011;54374;50.196;8.050;2022-08-01T00:53:21;4.73;;;2.60;;
9174;SDS011;54374;50.196;8.050;2022-08-01T00:55:48;2.20;;;2.03;;
9174;SDS011;54374;50.196;8.050;2022-08-01T00:58:15;2.37;;;1.97;;
9174;SDS011;54374;50.196;8.050;2022-08-01T01:00:43;7.77;;;2.50;;
9174;SDS011;54374;50.196;8.050;2022-08-01T01:03:11;4.70;;;2.13;;
9174;SDS011;54374;50.196;8.050;2022-08-01T01:05:45;2.90;;;2.17;;
9174;SDS011;54374;50.196;8.050;2022-08-01T01:08:21;2.67;;;2.20;;
9174;SDS011;54374;50.196;8.050;2022-08-01T01:10:54;2.50;;;2.23;;
9174;SDS011;54374;50.196;8.050;2022-08-01T01:13:26;4.60;;;3.10;;
9174;SDS011;54374;50.196;8.050;2022-08-01T01:16:01;4.50;;;2.17;;
9174;SDS011;54374;50.196;8.050;2022-08-01T01:18:37;4.27;;;2.60;;
9174;SDS011;54374;50.196;8.050;2022-08-01T01:21:13;2.90;;;2.53;;
9174;SDS011;54374;50.196;8.050;2022-08-01T01:24:04;2.17;;;1.97;;
9174;SDS011;54374;50.196;8.050;2022-08-01T01:26:43;1.90;;;1.80;;
9174;SDS011;54374;50.196;8.050;2022-08-01T01:29:21;3.33;;;1.60;;
9174;SDS011;54374;50.196;8.050;2022-08-01T01:31:55;3.70;;;2.20;;
9174;SDS011;54374;50.196;8.050;2022-08-01T01:34:28;3.90;;;2.53;;
9174;SDS011;54374;50.196;8.050;2022-08-01T01:36:58;2.77;;;2.00;;
9174;SDS011;54374;50.196;8.050;2022-08-01T01:39:28;4.03;;;2.07;;
9174;SDS011;54374;50.196;8.050;2022-08-01T01:41:57;3.20;;;2.43;;
9174;SDS011;54374;50.196;8.050;2022-08-01T01:44:26;2.30;;;2.10;;
9174;SDS011;54374;50.196;8.050;2022-08-01T01:46:54;4.80;;;2.60;;
9174;SDS011;54374;50.196;8.050;2022-08-01T01:49:23;4.87;;;2.10;;
9174;SDS011;54374;50.196;8.050;2022-08-01T01:51:56;2.53;;;2.30;;
9174;SDS011;54374;50.196;8.050;2022-08-01T01:54:27;3.70;;;2.30;;
9174;SDS011;54374;50.196;8.050;2022-08-01T01:56:56;2.60;;;2.20;;
9174;SDS011;54374;50.196;8.050;2022-08-01T01:59:28;2.20;;;2.00;;
9174;SDS011;54374;50.196;8.050;2022-08-01T02:01:58;2.20;;;2.00;;
9174;SDS011;54374;50.196;8.050;2022-08-01T02:04:30;2.47;;;2.10;;
9174;SDS011;54374;50.196;8.050;2022-08-01T02:06:58;1.63;;;1.53;;
9174;SDS011;54374;50.196;8.050;2022-08-01T02:09:27;3.00;;;2.03;;
9174;SDS011;54374;50.196;8.050;2022-08-01T02:11:55;2.40;;;2.07;;
9174;SDS011;54374;50.196;8.050;2022-08-01T02:14:24;3.73;;;2.23;;
9174;SDS011;54374;50.196;8.050;2022-08-01T02:16:54;2.40;;;2.10;;
9174;SDS011;54374;50.196;8.050;2022-08-01T02:19:26;2.60;;;2.00;;
9174;SDS011;54374;50.196;8.050;2022-08-01T02:21:55;2.67;;;1.73;;
9174;SDS011;54374;50.196;8.050;2022-08-01T02:24:28;1.90;;;1.60;;
9174;SDS011;54374;50.196;8.050;2022-08-01T02:27:09;2.83;;;2.00;;
9174;SDS011;54374;50.196;8.050;2022-08-01T02:29:39;2.67;;;2.20;;
9174;SDS011;54374;50.196;8.050;2022-08-01T02:32:11;2.13;;;1.90;;
9174;SDS011;54374;50.196;8.050;2022-08-01T02:34:42;2.70;;;2.27;;
9174;SDS011;54374;50.196;8.050;2022-08-01T02:37:15;2.80;;;1.70;;
9174;SDS011;54374;50.196;8.050;2022-08-01T02:39:43;3.23;;;2.17;;
9174;SDS011;54374;50.196;8.050;2022-08-01T02:42:14;2.17;;;1.87;;
9174;SDS011;54374;50.196;8.050;2022-08-01T02:44:44;2.67;;;1.63;;
9174;SDS011;54374;50.196;8.050;2022-08-01T02:47:15;2.17;;;1.63;;
9174;SDS011;54374;50.196;8.050;2022-08-01T02:49:45;3.00;;;1.90;;
9174;SDS011;54374;50.196;8.050;2022-08-01T02:52:14;2.40;;;1.63;;
9174;SDS011;54374;50.196;8.050;2022-08-01T02:54:43;2.33;;;2.13;;
9174;SDS011;54374;50.196;8.050;2022-08-01T02:57:11;4.13;;;2.10;;
9174;SDS011;54374;50.196;8.050;2022-08-01T02:59:41;2.17;;;1.70;;
9174;SDS011;54374;50.196;8.050;2022-08-01T03:02:10;2.40;;;2.00;;
9174;SDS011;54374;50.196;8.050;2022-08-01T03:04:41;4.53;;;2.03;;
9174;SDS011;54374;50.196;8.050;2022-08-01T03:07:09;2.33;;;1.90;;
9174;SDS011;54374;50.196;8.050;2022-08-01T03:09:39;1.80;;;1.60;;
9174;SDS011;54374;50.196;8.050;2022-08-01T03:12:11;2.07;;;1.80;;
9174;SDS011;54374;50.196;8.050;2022-08-01T03:14:42;1.73;;;1.63;;
9174;SDS011;54374;50.196;8.050;2022-08-01T03:17:09;1.87;;;1.50;;
9174;SDS011;54374;50.196;8.050;2022-08-01T03:19:38;2.70;;;1.70;;
9174;SDS011;54374;50.196;8.050;2022-08-01T03:22:09;2.20;;;2.00;;
9174;SDS011;54374;50.196;8.050;2022-08-01T03:24:39;2.47;;;1.80;;
9174;SDS011;54374;50.196;8.050;2022-08-01T03:27:08;2.00;;;1.80;;
9174;SDS011;54374;50.196;8.050;2022-08-01T03:29:36;1.77;;;1.67;;
9174;SDS011;54374;50.196;8.050;2022-08-01T03:32:05;3.00;;;1.73;;
9174;SDS011;54374;50.196;8.050;2022-08-01T03:34:33;1.70;;;1.60;;
9174;SDS011;54374;50.196;8.050;2022-08-01T03:37:01;4.00;;;1.60;;
9174;SDS011;54374;50.196;8.050;2022-08-01T03:39:48;2.27;;;1.37;;
9174;SDS011;54374;50.196;8.050;2022-08-01T03:42:19;3.80;;;1.60;;
9174;SDS011;54374;50.196;8.050;2022-08-01T03:44:52;1.80;;;1.67;;
9174;SDS011;54374;50.196;8.050;2022-08-01T03:47:21;1.40;;;1.30;;
9174;SDS011;54374;50.196;8.050;2022-08-01T03:49:56;2.93;;;1.67;;
9174;SDS011;54374;50.196;8.050;2022-08-01T03:52:24;2.20;;;1.70;;
9174;SDS011;54374;50.196;8.050;2022-08-01T03:54:56;1.60;;;1.50;;
9174;SDS011;54374;50.196;8.050;2022-08-01T03:57:28;3.10;;;1.90;;
9174;SDS011;54374;50.196;8.050;2022-08-01T03:59:56;2.40;;;2.00;;
9174;SDS011;54374;50.196;8.050;2022-08-01T04:02:24;4.03;;;1.90;;
9174;SDS011;54374;50.196;8.050;2022-08-01T04:04:52;3.43;;;1.63;;
9174;SDS011;54374;50.196;8.050;2022-08-01T04:07:23;1.47;;;1.23;;
9174;SDS011;54374;50.196;8.050;2022-08-01T04:09:53;2.90;;;1.40;;
9174;SDS011;54374;50.196;8.050;2022-08-01T04:12:21;1.40;;;1.30;;
9174;SDS011;54374;50.196;8.050;2022-08-01T04:14:49;1.70;;;1.60;;
9174;SDS011;54374;50.196;8.050;2022-08-01T04:17:16;1.67;;;1.57;;
9174;SDS011;54374;50.196;8.050;2022-08-01T04:19:45;5.17;;;1.67;;
9174;SDS011;54374;50.196;8.050;2022-08-01T04:22:13;1.80;;;1.30;;
9174;SDS011;54374;50.196;8.050;2022-08-01T04:24:41;1.93;;;1.70;;
9174;SDS011;54374;50.196;8.050;2022-08-01T04:27:16;1.93;;;1.47;;
9174;SDS011;54374;50.196;8.050;2022-08-01T04:29:58;2.70;;;1.70;;
9174;SDS011;54374;50.196;8.050;2022-08-01T04:32:26;1.80;;;1.70;;
9174;SDS011;54374;50.196;8.050;2022-08-01T04:34:58;1.60;;;1.30;;
9174;SDS011;54374;50.196;8.050;2022-08-01T04:37:28;2.20;;;1.57;;
9174;SDS011;54374;50.196;8.050;2022-08-01T04:39:56;1.60;;;1.50;;
9174;SDS011;54374;50.196;8.050;2022-08-01T04:42:24;1.60;;;1.50;;
9174;SDS011;54374;50.196;8.050;2022-08-01T04:44:53;1.77;;;1.50;;
9174;SDS011;54374;50.196;8.050;2022-08-01T04:47:21;2.13;;;1.97;;
9174;SDS011;54374;50.196;8.050;2022-08-01T04:49:49;2.40;;;1.57;;
9174;SDS011;54374;50.196;8.050;2022-08-01T04:52:16;1.47;;;1.20;;
9174;SDS011;54374;50.196;8.050;2022-08-01T04:54:44;2.70;;;1.40;;
9174;SDS011;54374;50.196;8.050;2022-08-01T04:57:12;2.00;;;1.30;;
9174;SDS011;54374;50.196;8.050;2022-08-01T04:59:41;1.67;;;1.57;;
9174;SDS011;54374;50.196;8.050;2022-08-01T05:02:13;1.53;;;1.43;;
9174;SDS011;54374;50.196;8.050;2022-08-01T05:04:43;3.23;;;1.53;;
9174;SDS011;54374;50.196;8.050;2022-08-01T05:07:12;3.00;;;1.83;;
9174;SDS011;54374;50.196;8.050;2022-08-01T05:09:41;1.30;;;1.20;;
9174;SDS011;54374;50.196;8.050;2022-08-01T05:12:11;3.00;;;1.80;;
9174;SDS011;54374;50.196;8.050;2022-08-01T05:14:38;1.97;;;1.77;;
9174;SDS011;54374;50.196;8.050;2022-08-01T05:17:07;1.50;;;1.40;;
9174;SDS011;54374;50.196;8.050;2022-08-01T05:19:35;1.67;;;1.40;;
9174;SDS011;54374;50.196;8.050;2022-08-01T05:22:05;1.37;;;1.27;;
9174;SDS011;54374;50.196;8.050;2022-08-01T05:24:33;1.40;;;1.27;;
9174;SDS011;54374;50.196;8.050;2022-08-01T05:27:01;1.50;;;1.40;;
9174;SDS011;54374;50.196;8.050;2022-08-01T05:29:28;2.87;;;2.30;;
9174;SDS011;54374;50.196;8.050;2022-08-01T05:31:56;2.33;;;1.60;;
9174;SDS011;54374;50.196;8.050;2022-08-01T05:34:26;3.97;;;1.80;;
9174;SDS011;54374;50.196;8.050;2022-08-01T05:36:55;1.50;;;1.40;;
9174;SDS011;54374;50.196;8.050;2022-08-01T05:39:23;2.03;;;1.53;;
9174;SDS011;54374;50.196;8.050;2022-08-01T05:41:50;2.20;;;1.47;;
9174;SDS011;54374;50.196;8.050;2022-08-01T05:44:17;2.10;;;1.90;;
9174;SDS011;54374;50.196;8.050;2022-08-01T05:46:44;3.20;;;1.87;;
9174;SDS011;54374;50.196;8.050;2022-08-01T05:49:11;2.80;;;1.47;;
9174;SDS011;54374;50.196;8.050;2022-08-01T05:51:38;2.93;;;1.70;;
9174;SDS011;54374;50.196;8.050;2022-08-01T05:54:05;2.20;;;1.33;;
9174;SDS011;54374;50.196;8.050;2022-08-01T05:56:34;2.73;;;1.70;;
9174;SDS011;54374;50.196;8.050;2022-08-01T05:59:01;4.67;;;1.70;;
9174;SDS011;54374;50.196;8.050;2022-08-01T06:01:28;1.73;;;1.43;;
9174;SDS011;54374;50.196;8.050;2022-08-01T06:03:55;1.53;;;1.40;;
9174;SDS011;54374;50.196;8.050;2022-08-01T06:06:22;1.70;;;1.60;;
9174;SDS011;54374;50.196;8.050;2022-08-01T06:08:50;1.70;;;1.37;;
9174;SDS011;54374;50.196;8.050;2022-08-01T06:11:17;1.60;;;1.50;;
9174;SDS011;54374;50.196;8.050;2022-08-01T06:13:45;3.50;;;1.70;;
9174;SDS011;54374;50.196;8.050;2022-08-01T06:16:12;2.30;;;1.50;;
9174;SDS011;54374;50.196;8.050;2022-08-01T06:18:39;2.00;;;1.43;;
9174;SDS011;54374;50.196;8.050;2022-08-01T06:21:06;1.73;;;1.47;;
9174;SDS011;54374;50.196;8.050;2022-08-01T06:23:36;2.40;;;1.47;;
9174;SDS011;54374;50.196;8.050;2022-08-01T06:26:03;1.60;;;1.50;;
9174;SDS011;54374;50.196;8.050;2022-08-01T06:28:30;1.93;;;1.73;;
9174;SDS011;54374;50.196;8.050;2022-08-01T06:30:59;1.70;;;1.60;;
9174;SDS011;54374;50.196;8.050;2022-08-01T06:33:26;1.47;;;1.37;;
9174;SDS011;54374;50.196;8.050;2022-08-01T06:35:53;1.93;;;1.80;;
9174;SDS011;54374;50.196;8.050;2022-08-01T06:38:21;2.60;;;1.67;;
9174;SDS011;54374;50.196;8.050;2022-08-01T06:40:48;3.93;;;1.47;;
9174;SDS011;54374;50.196;8.050;2022-08-01T06:43:15;2.80;;;1.60;;
9174;SDS011;54374;50.196;8.050;2022-08-01T06:45:43;2.30;;;1.83;;
9174;SDS011;54374;50.196;8.050;2022-08-01T06:48:12;2.30;;;1.70;;
9174;SDS011;54374;50.196;8.050;2022-08-01T06:50:39;3.90;;;2.00;;
9174;SDS011;54374;50.196;8.050;2022-08-01T06:53:06;2.77;;;1.83;;
9174;SDS011;54374;50.196;8.050;2022-08-01T06:55:33;1.73;;;1.40;;
9174;SDS011;54374;50.196;8.050;2022-08-01T06:58:01;2.73;;;1.90;;
9174;SDS011;54374;50.196;8.050;2022-08-01T07:00:28;3.50;;;2.40;;
9174;SDS011;54374;50.196;8.050;2022-08-01T07:02:55;3.57;;;1.93;;
9174;SDS011;54374;50.196;8.050;2022-08-01T07:05:26;6.13;;;2.47;;
9174;SDS011;54374;50.196;8.050;2022-08-01T07:07:56;2.73;;;2.40;;
9174;SDS011;54374;50.196;8.050;2022-08-01T07:10:23;3.60;;;3.00;;
9174;SDS011;54374;50.196;8.050;2022-08-01T07:12:50;3.87;;;3.10;;
9174;SDS011;54374;50.196;8.050;2022-08-01T07:15:17;4.93;;;3.50;;
9174;SDS011;54374;50.196;8.050;2022-08-01T07:17:47;5.70;;;3.70;;
9174;SDS011;54374;50.196;8.050;2022-08-01T07:20:14;3.57;;;3.10;;
9174;SDS011;54374;50.196;8.050;2022-08-01T07:22:42;3.93;;;2.80;;
9174;SDS011;54374;50.196;8.050;2022-08-01T07:25:09;3.30;;;2.83;;
9174;SDS011;54374;50.196;8.050;2022-08-01T07:27:37;5.03;;;3.67;;
9174;SDS011;54374;50.196;8.050;2022-08-01T07:30:07;7.60;;;3.00;;
9174;SDS011;54374;50.196;8.050;2022-08-01T07:32:36;4.67;;;2.97;;
9174;SDS011;54374;50.196;8.050;2022-08-01T07:35:03;3.63;;;3.23;;
9174;SDS011;54374;50.196;8.050;2022-08-01T07:37:31;5.50;;;3.30;;
9174;SDS011;54374;50.196;8.050;2022-08-01T07:40:04;4.17;;;3.47;;
9174;SDS011;54374;50.196;8.050;2022-08-01T07:42:32;4.30;;;3.70;;
9174;SDS011;54374;50.196;8.050;2022-08-01T07:44:59;4.53;;;3.13;;
9174;SDS011;54374;50.196;8.050;2022-08-01T07:47:26;5.63;;;4.07;;
9174;SDS011;54374;50.196;8.050;2022-08-01T07:49:58;7.60;;;3.40;;
9174;SDS011;54374;50.196;8.050;2022-08-01T07:52:28;4.10;;;3.60;;
9174;SDS011;54374;50.196;8.050;2022-08-01T07:54:55;6.50;;;3.67;;
9174;SDS011;54374;50.196;8.050;2022-08-01T07:57:26;4.13;;;3.73;;
9174;SDS011;54374;50.196;8.050;2022-08-01T07:59:56;5.40;;;3.47;;
9174;SDS011;54374;50.196;8.050;2022-08-01T08:02:23;4.87;;;3.40;;
9174;SDS011;54374;50.196;8.050;2022-08-01T08:04:50;4.87;;;2.90;;
9174;SDS011;54374;50.196;8.050;2022-08-01T08:07:17;3.93;;;3.40;;
9174;SDS011;54374;50.196;8.050;2022-08-01T08:09:44;4.47;;;3.13;;
9174;SDS011;54374;50.196;8.050;2022-08-01T08:12:12;4.30;;;3.00;;
9174;SDS011;54374;50.196;8.050;2022-08-01T08:14:40;9.20;;;3.73;;
9174;SDS011;54374;50.196;8.050;2022-08-01T08:17:07;3.30;;;2.93;;
9174;SDS011;54374;50.196;8.050;2022-08-01T08:19:34;4.60;;;3.40;;
9174;SDS011;54374;50.196;8.050;2022-08-01T08:22:03;6.30;;;3.27;;
9174;SDS011;54374;50.196;8.050;2022-08-01T08:24:31;2.80;;;2.50;;
9174;SDS011;54374;50.196;8.050;2022-08-01T08:26:59;5.97;;;2.63;;
9174;SDS011;54374;50.196;8.050;2022-08-01T08:29:29;3.00;;;2.60;;
9174;SDS011;54374;50.196;8.050;2022-08-01T08:31:58;6.07;;;2.63;;
9174;SDS011;54374;50.196;8.050;2022-08-01T08:34:29;3.23;;;2.70;;
9174;SDS011;54374;50.196;8.050;2022-08-01T08:36:56;3.47;;;3.00;;
9174;SDS011;54374;50.196;8.050;2022-08-01T08:39:24;5.13;;;3.00;;
9174;SDS011;54374;50.196;8.050;2022-08-01T08:41:52;5.67;;;2.60;;
9174;SDS011;54374;50.196;8.050;2022-08-01T08:44:19;3.57;;;2.63;;
9174;SDS011;54374;50.196;8.050;2022-08-01T08:46:47;3.97;;;2.90;;
9174;SDS011;54374;50.196;8.050;2022-08-01T08:49:18;4.57;;;2.97;;
9174;SDS011;54374;50.196;8.050;2022-08-01T08:51:47;3.23;;;2.90;;
9174;SDS011;54374;50.196;8.050;2022-08-01T08:54:17;2.90;;;2.50;;
9174;SDS011;54374;50.196;8.050;2022-08-01T08:56:46;4.40;;;2.80;;
9174;SDS011;54374;50.196;8.050;2022-08-01T08:59:15;3.87;;;3.03;;
9174;SDS011;54374;50.196;8.050;2022-08-01T09:01:43;2.70;;;2.43;;
9174;SDS011;54374;50.196;8.050;2022-08-01T09:04:10;5.07;;;3.03;;
9174;SDS011;54374;50.196;8.050;2022-08-01T09:06:39;3.67;;;3.03;;
9174;SDS011;54374;50.196;8.050;2022-08-01T09:09:07;2.97;;;2.67;;
9174;SDS011;54374;50.196;8.050;2022-08-01T09:11:35;4.60;;;2.53;;
9174;SDS011;54374;50.196;8.050;2022-08-01T09:14:04;4.13;;;3.20;;
9174;SDS011;54374;50.196;8.050;2022-08-01T09:16:33;2.77;;;2.50;;
9174;SDS011;54374;50.196;8.050;2022-08-01T09:19:08;2.87;;;2.07;;
9174;SDS011;54374;50.196;8.050;2022-08-01T09:21:39;3.10;;;2.80;;
9174;SDS011;54374;50.196;8.050;2022-08-01T09:24:21;3.30;;;2.37;;
9174;SDS011;54374;50.196;8.050;2022-08-01T09:26:48;3.33;;;2.20;;
9174;SDS011;54374;50.196;8.050;2022-08-01T09:29:19;3.17;;;2.50;;
9174;SDS011;54374;50.196;8.050;2022-08-01T09:31:48;3.80;;;2.40;;
9174;SDS011;54374;50.196;8.050;2022-08-01T09:34:23;2.73;;;2.30;;
9174;SDS011;54374;50.196;8.050;2022-08-01T09:36:55;5.43;;;2.47;;
9174;SDS011;54374;50.196;8.050;2022-08-01T09:39:25;2.90;;;2.60;;
9174;SDS011;54374;50.196;8.050;2022-08-01T09:41:53;3.40;;;2.60;;
9174;SDS011;54374;50.196;8.050;2022-08-01T09:44:36;9.27;;;2.40;;
9174;SDS011;54374;50.196;8.050;2022-08-01T09:47:04;2.37;;;2.17;;
9174;SDS011;54374;50.196;8.050;2022-08-01T09:49:32;3.17;;;2.90;;
9174;SDS011;54374;50.196;8.050;2022-08-01T09:52:16;2.67;;;2.47;;
9174;SDS011;54374;50.196;8.050;2022-08-01T09:54:51;4.17;;;2.83;;
9174;SDS011;54374;50.196;8.050;2022-08-01T09:57:20;2.60;;;2.27;;
9174;SDS011;54374;50.196;8.050;2022-08-01T09:59:48;2.30;;;2.10;;
9174;SDS011;54374;50.196;8.050;2022-08-01T10:02:26;2.93;;;2.10;;
9174;SDS011;54374;50.196;8.050;2022-08-01T10:04:56;2.60;;;2.40;;
9174;SDS011;54374;50.196;8.050;2022-08-01T10:07:25;2.47;;;2.27;;
9174;SDS011;54374;50.196;8.050;2022-08-01T10:09:52;2.70;;;2.50;;
9174;SDS011;54374;50.196;8.050;2022-08-01T10:12:20;2.50;;;2.30;;
9174;SDS011;54374;50.196;8.050;2022-08-01T10:14:53;2.80;;;2.30;;
9174;SDS011;54374;50.196;8.050;2022-08-01T10:17:24;3.60;;;2.10;;
9174;SDS011;54374;50.196;8.050;2022-08-01T10:19:52;2.20;;;2.00;;
9174;SDS011;54374;50.196;8.050;2022-08-01T10:22:22;3.33;;;2.50;;
9174;SDS011;54374;50.196;8.050;2022-08-01T10:24:55;4.10;;;2.10;;
9174;SDS011;54374;50.196;8.050;2022-08-01T10:27:26;5.33;;;2.53;;
9174;SDS011;54374;50.196;8.050;2022-08-01T10:30:00;2.73;;;1.97;;
9174;SDS011;54374;50.196;8.050;2022-08-01T10:32:30;3.27;;;2.40;;
9174;SDS011;54374;50.196;8.050;2022-08-01T10:34:58;2.73;;;2.40;;
9174;SDS011;54374;50.196;8.050;2022-08-01T10:37:27;2.10;;;1.90;;
9174;SDS011;54374;50.196;8.050;2022-08-01T10:39:55;2.60;;;2.30;;
9174;SDS011;54374;50.196;8.050;2022-08-01T10:42:23;2.80;;;2.40;;
9174;SDS011;54374;50.196;8.050;2022-08-01T10:44:50;2.47;;;2.27;;
9174;SDS011;54374;50.196;8.050;2022-08-01T10:47:18;5.30;;;1.90;;
9174;SDS011;54374;50.196;8.050;2022-08-01T10:49:53;3.17;;;2.40;;
9174;SDS011;54374;50.196;8.050;2022-08-01T10:52:29;3.30;;;2.50;;
9174;SDS011;54374;50.196;8.050;2022-08-01T10:55:01;2.67;;;2.47;;
9174;SDS011;54374;50.196;8.050;2022-08-01T10:57:40;3.23;;;2.30;;
9174;SDS011;54374;50.196;8.050;2022-08-01T11:00:10;2.60;;;2.40;;
9174;SDS011;54374;50.196;8.050;2022-08-01T11:02:44;2.13;;;1.93;;
9174;SDS011;54374;50.196;8.050;2022-08-01T11:05:27;4.83;;;2.13;;
9174;SDS011;54374;50.196;8.050;2022-08-01T11:08:00;3.00;;;2.70;;
9174;SDS011;54374;50.196;8.050;2022-08-01T11:10:30;4.10;;;2.50;;
9174;SDS011;54374;50.196;8.050;2022-08-01T11:13:02;2.37;;;2.17;;
9174;SDS011;54374;50.196;8.050;2022-08-01T11:15:33;3.23;;;1.90;;
9174;SDS011;54374;50.196;8.050;2022-08-01T11:18:01;3.70;;;2.50;;
9174;SDS011;54374;50.196;8.050;2022-08-01T11:20:30;2.50;;;2.30;;
9174;SDS011;54374;50.196;8.050;2022-08-01T11:26:06;2.23;;;2.03;;
9174;SDS011;54374;50.196;8.050;2022-08-01T11:28:44;3.13;;;2.23;;
9174;SDS011;54374;50.196;8.050;2022-08-01T11:31:26;5.17;;;2.10;;
9174;SDS011;54374;50.196;8.050;2022-08-01T11:33:59;5.80;;;2.27;;
9174;SDS011;54374;50.196;8.050;2022-08-01T11:36:30;2.40;;;2.20;;
9174;SDS011;54374;50.196;8.050;2022-08-01T11:39:18;3.30;;;2.30;;
9174;SDS011;54374;50.196;8.050;2022-08-01T11:41:46;3.63;;;2.10;;
9174;SDS011;54374;50.196;8.050;2022-08-01T11:44:18;2.93;;;2.23;;
9174;SDS011;54374;50.196;8.050;2022-08-01T11:46:57;2.57;;;2.17;;
9174;SDS011;54374;50.196;8.050;2022-08-01T11:49:33;3.50;;;2.30;;
9174;SDS011;54374;50.196;8.050;2022-08-01T11:52:12;2.40;;;2.20;;
9174;SDS011;54374;50.196;8.050;2022-08-01T11:54:42;3.23;;;2.33;;
9174;SDS011;54374;50.196;8.050;2022-08-01T11:57:11;2.30;;;2.10;;
9174;SDS011;54374;50.196;8.050;2022-08-01T11:59:41;2.30;;;2.10;;
9174;SDS011;54374;50.196;8.050;2022-08-01T12:02:17;2.20;;;2.00;;
9174;SDS011;54374;50.196;8.050;2022-08-01T12:04:52;4.27;;;2.20;;
9174;SDS011;54374;50.196;8.050;2022-08-01T12:07:21;2.50;;;2.20;;
9174;SDS011;54374;50.196;8.050;2022-08-01T12:09:55;6.40;;;2.63;;
9174;SDS011;54374;50.196;8.050;2022-08-01T12:12:24;2.93;;;2.63;;
9174;SDS011;54374;50.196;8.050;2022-08-01T12:14:52;4.97;;;3.10;;
9174;SDS011;54374;50.196;8.050;2022-08-01T12:17:28;3.37;;;2.63;;
9174;SDS011;54374;50.196;8.050;2022-08-01T12:19:58;3.57;;;3.13;;
9174;SDS011;54374;50.196;8.050;2022-08-01T12:22:25;7.50;;;2.80;;
9174;SDS011;54374;50.196;8.050;2022-08-01T12:24:54;4.63;;;2.40;;
9174;SDS011;54374;50.196;8.050;2022-08-01T12:27:26;3.80;;;2.90;;
9174;SDS011;54374;50.196;8.050;2022-08-01T12:29:54;4.27;;;3.00;;
9174;SDS011;54374;50.196;8.050;2022-08-01T12:32:24;3.93;;;2.43;;
9174;SDS011;54374;50.196;8.050;2022-08-01T12:34:53;4.63;;;2.70;;
9174;SDS011;54374;50.196;8.050;2022-08-01T12:37:21;4.07;;;2.80;;
9174;SDS011;54374;50.196;8.050;2022-08-01T12:39:53;2.77;;;2.57;;
9174;SDS011;54374;50.196;8.050;2022-08-01T12:42:20;5.60;;;2.63;;
9174;SDS011;54374;50.196;8.050;2022-08-01T12:44:49;7.03;;;2.53;;
9174;SDS011;54374;50.196;8.050;2022-08-01T12:47:18;5.80;;;2.97;;
9174;SDS011;54374;50.196;8.050;2022-08-01T12:49:47;3.60;;;3.07;;
9174;SDS011;54374;50.196;8.050;2022-08-01T12:52:18;4.10;;;3.03;;
9174;SDS011;54374;50.196;8.050;2022-08-01T12:55:05;5.53;;;3.00;;
9174;SDS011;54374;50.196;8.050;2022-08-01T12:57:36;8.57;;;3.10;;
9174;SDS011;54374;50.196;8.050;2022-08-01T13:00:05;4.50;;;3.40;;
9174;SDS011;54374;50.196;8.050;2022-08-01T13:02:49;4.50;;;2.90;;
9174;SDS011;54374;50.196;8.050;2022-08-01T13:05:17;4.37;;;3.00;;
9174;SDS011;54374;50.196;8.050;2022-08-01T13:07:48;3.60;;;2.93;;
9174;SDS011;54374;50.196;8.050;2022-08-01T13:10:26;4.07;;;3.13;;
9174;SDS011;54374;50.196;8.050;2022-08-01T13:12:55;3.50;;;2.90;;
9174;SDS011;54374;50.196;8.050;2022-08-01T13:15:25;5.57;;;2.70;;
9174;SDS011;54374;50.196;8.050;2022-08-01T13:17:56;3.00;;;2.70;;
9174;SDS011;54374;50.196;8.050;2022-08-01T13:20:28;3.50;;;3.20;;
9174;SDS011;54374;50.196;8.050;2022-08-01T13:23:10;3.63;;;3.20;;
9174;SDS011;54374;50.196;8.050;2022-08-01T13:25:50;5.73;;;3.03;;
9174;SDS011;54374;50.196;8.050;2022-08-01T13:28:20;4.40;;;3.00;;
9174;SDS011;54374;50.196;8.050;2022-08-01T13:30:52;4.13;;;2.80;;
9174;SDS011;54374;50.196;8.050;2022-08-01T13:33:20;2.93;;;2.63;;
9174;SDS011;54374;50.196;8.050;2022-08-01T13:35:49;4.53;;;2.80;;
9174;SDS011;54374;50.196;8.050;2022-08-01T13:38:17;5.27;;;3.50;;
9174;SDS011;54374;50.196;8.050;2022-08-01T13:40:45;5.90;;;3.40;;
9174;SDS011;54374;50.196;8.050;2022-08-01T13:43:13;6.43;;;3.20;;
9174;SDS011;54374;50.196;8.050;2022-08-01T13:45:40;4.40;;;3.20;;
9174;SDS011;54374;50.196;8.050;2022-08-01T13:48:08;4.53;;;3.17;;
9174;SDS011;54374;50.196;8.050;2022-08-01T13:50:35;5.07;;;3.50;;
9174;SDS011;54374;50.196;8.050;2022-08-01T13:53:02;5.53;;;4.00;;
9174;SDS011;54374;50.196;8.050;2022-08-01T13:55:29;4.57;;;3.97;;
9174;SDS011;54374;50.196;8.050;2022-08-01T13:57:56;5.70;;;3.40;;
9174;SDS011;54374;50.196;8.050;2022-08-01T14:00:25;6.03;;;3.70;;
9174;SDS011;54374;50.196;8.050;2022-08-01T14:02:52;4.00;;;3.43;;
9174;SDS011;54374;50.196;8.050;2022-08-01T14:05:19;4.57;;;3.60;;
9174;SDS011;54374;50.196;8.050;2022-08-01T14:07:46;7.70;;;4.27;;
9174;SDS011;54374;50.196;8.050;2022-08-01T14:10:13;3.50;;;3.10;;
9174;SDS011;54374;50.196;8.050;2022-08-01T14:12:40;6.40;;;3.57;;
9174;SDS011;54374;50.196;8.050;2022-08-01T14:15:07;3.53;;;3.17;;
9174;SDS011;54374;50.196;8.050;2022-08-01T14:17:36;4.47;;;3.60;;
9174;SDS011;54374;50.196;8.050;2022-08-01T14:20:04;11.30;;;3.80;;
9174;SDS011;54374;50.196;8.050;2022-08-01T14:22:32;3.40;;;3.10;;
9174;SDS011;54374;50.196;8.050;2022-08-01T14:24:59;3.20;;;2.90;;
9174;SDS011;54374;50.196;8.050;2022-08-01T14:27:26;4.10;;;3.27;;
9174;SDS011;54374;50.196;8.050;2022-08-01T14:29:55;3.10;;;2.80;;
9174;SDS011;54374;50.196;8.050;2022-08-01T14:32:23;4.80;;;2.97;;
9174;SDS011;54374;50.196;8.050;2022-08-01T14:34:51;6.50;;;3.50;;
9174;SDS011;54374;50.196;8.050;2022-08-01T14:37:18;4.80;;;2.93;;
9174;SDS011;54374;50.196;8.050;2022-08-01T14:39:45;4.07;;;2.60;;
9174;SDS011;54374;50.196;8.050;2022-08-01T14:42:13;3.53;;;2.83;;
9174;SDS011;54374;50.196;8.050;2022-08-01T14:44:40;5.23;;;3.00;;
9174;SDS011;54374;50.196;8.050;2022-08-01T14:47:07;2.60;;;2.40;;
9174;SDS011;54374;50.196;8.050;2022-08-01T14:49:34;3.33;;;2.30;;
9174;SDS011;54374;50.196;8.050;2022-08-01T14:52:02;2.70;;;2.13;;
9174;SDS011;54374;50.196;8.050;2022-08-01T14:54:29;3.03;;;2.60;;
9174;SDS011;54374;50.196;8.050;2022-08-01T14:56:57;2.93;;;2.60;;
9174;SDS011;54374;50.196;8.050;2022-08-01T14:59:24;2.60;;;2.40;;
9174;SDS011;54374;50.196;8.050;2022-08-01T15:01:51;3.20;;;2.17;;
9174;SDS011;54374;50.196;8.050;2022-08-01T15:04:18;3.80;;;2.30;;
9174;SDS011;54374;50.196;8.050;2022-08-01T15:06:45;3.53;;;2.30;;
9174;SDS011;54374;50.196;8.050;2022-08-01T15:09:13;3.33;;;2.20;;
9174;SDS011;54374;50.196;8.050;2022-08-01T15:11:41;2.50;;;2.30;;
9174;SDS011;54374;50.196;8.050;2022-08-01T15:14:08;2.20;;;2.00;;
9174;SDS011;54374;50.196;8.050;2022-08-01T15:16:52;3.23;;;2.30;;
9174;SDS011;54374;50.196;8.050;2022-08-01T15:19:19;4.83;;;2.77;;